createdAt,value
2019-04-06T00:00:00.037Z,6.96
2019-04-06T00:01:00.034Z,6.93
2019-04-06T00:02:00.015Z,6.89
2019-04-06T00:03:00.006Z,7.02
2019-04-06T00:04:00.013Z,6.92
2019-04-06T00:04:59.985Z,7.05
2019-04-06T00:05:59.973Z,7.06
2019-04-06T00:06:59.982Z,7.07
2019-04-06T00:07:59.951Z,7.03
2019-04-06T00:08:59.971Z,7.06
2019-04-06T00:09:59.931Z,7.02
2019-04-06T00:10:59.919Z,6.99
2019-04-06T00:11:59.908Z,7.07
2019-04-06T00:12:59.897Z,7.07
2019-04-06T00:13:59.907Z,7.05
2019-04-06T00:14:59.882Z,6.96
2019-04-06T00:15:59.866Z,6.93
2019-04-06T00:16:59.863Z,7.05
2019-04-06T00:17:59.874Z,6.96
2019-04-06T00:18:59.857Z,7.02
2019-04-06T00:19:59.822Z,6.95
2019-04-06T00:20:59.815Z,7.03
2019-04-06T00:21:59.811Z,7.03
2019-04-06T00:22:59.796Z,6.97
2019-04-06T00:23:59.779Z,7.03
2019-04-06T00:24:59.791Z,6.99
2019-04-06T00:25:59.760Z,6.99
2019-04-06T00:26:59.771Z,7.07
2019-04-06T00:27:59.744Z,7.06
2019-04-06T00:28:59.732Z,7.03
2019-04-06T00:29:59.735Z,7.07
2019-04-06T00:30:59.707Z,7.06
2019-04-06T00:31:59.695Z,7.06
2019-04-06T00:32:59.690Z,7.07
2019-04-06T00:33:59.675Z,7.03
2019-04-06T00:34:59.687Z,7.10
2019-04-06T00:35:59.658Z,7.06
2019-04-06T00:36:59.639Z,7.10
2019-04-06T00:37:59.632Z,7.06
2019-04-06T00:38:59.627Z,7.17
2019-04-06T00:39:59.634Z,7.07
2019-04-06T00:40:59.604Z,7.10
2019-04-06T00:41:59.648Z,7.13
2019-04-06T00:42:59.584Z,7.14
2019-04-06T00:43:59.564Z,7.10
2019-04-06T00:44:59.594Z,7.02
2019-04-06T00:45:59.567Z,7.03
2019-04-06T00:46:59.538Z,7.13
2019-04-06T00:47:59.531Z,7.17
2019-04-06T00:48:59.515Z,7.10
2019-04-06T00:49:59.520Z,7.07
2019-04-06T00:50:59.489Z,7.11
2019-04-06T00:51:59.493Z,7.03
2019-04-06T00:52:59.472Z,7.06
2019-04-06T00:53:59.461Z,7.10
2019-04-06T00:54:59.470Z,7.06
2019-04-06T00:55:59.442Z,7.05
2019-04-06T00:56:59.429Z,7.07
2019-04-06T00:57:59.416Z,7.10
2019-04-06T00:58:59.403Z,7.05
2019-04-06T00:59:59.418Z,7.11
2019-04-06T01:00:59.387Z,7.10
2019-04-06T01:01:59.396Z,7.07
2019-04-06T01:02:59.361Z,7.15
2019-04-06T01:03:59.356Z,7.05
2019-04-06T01:04:59.366Z,7.11
2019-04-06T01:05:59.332Z,7.05
2019-04-06T01:06:59.324Z,7.05
2019-04-06T01:07:59.313Z,7.06
2019-04-06T01:08:59.300Z,7.14
2019-04-06T01:09:59.288Z,7.11
2019-04-06T01:10:59.293Z,7.07
2019-04-06T01:11:59.265Z,7.11
2019-04-06T01:12:59.255Z,7.07
2019-04-06T01:13:59.255Z,7.10
2019-04-06T01:14:59.238Z,7.14
2019-04-06T01:15:59.244Z,7.06
2019-04-06T01:16:59.213Z,7.14
2019-04-06T01:17:59.205Z,7.10
2019-04-06T01:18:59.195Z,7.05
2019-04-06T01:19:59.185Z,7.10
2019-04-06T01:20:59.200Z,7.17
2019-04-06T01:21:59.169Z,7.03
2019-04-06T01:22:59.146Z,7.10
2019-04-06T01:23:59.136Z,7.15
2019-04-06T01:24:59.129Z,7.07
2019-04-06T01:26:07.071Z,7.07
2019-04-06T01:27:00.126Z,7.03
2019-04-06T01:27:59.100Z,7.03
2019-04-06T01:28:59.085Z,7.07
2019-04-06T01:29:59.075Z,7.11
2019-04-06T01:30:59.082Z,7.07
2019-04-06T01:31:59.073Z,7.11
2019-04-06T01:32:59.081Z,7.11
2019-04-06T01:33:59.415Z,7.03
2019-04-06T01:34:59.064Z,7.06
2019-04-06T01:35:59.093Z,7.10
2019-04-06T01:36:59.163Z,7.14
2019-04-06T01:37:58.989Z,7.14
2019-04-06T01:38:59.089Z,7.07
2019-04-06T01:39:58.970Z,7.14
2019-04-06T01:40:59.406Z,7.13
2019-04-06T01:41:59.941Z,7.07
2019-04-06T01:43:00.166Z,7.02
2019-04-06T01:44:00.522Z,7.07
2019-04-06T01:45:00.377Z,7.10
2019-04-06T01:45:59.678Z,7.10
2019-04-06T01:46:58.919Z,7.05
2019-04-06T01:47:58.891Z,7.10
2019-04-06T01:48:58.872Z,7.14
2019-04-06T01:49:58.865Z,7.14
2019-04-06T01:50:58.852Z,7.10
2019-04-06T01:51:58.842Z,7.02
2019-04-06T01:52:58.844Z,7.03
2019-04-06T01:53:58.952Z,7.17
2019-04-06T01:54:59.236Z,7.06
2019-04-06T01:55:58.801Z,7.02
2019-04-06T01:56:58.986Z,7.05
2019-04-06T01:57:58.899Z,7.15
2019-04-06T01:58:58.858Z,7.02
2019-04-06T02:00:06.005Z,7.06
2019-04-06T02:00:59.752Z,7.06
2019-04-06T02:01:58.732Z,7.15
2019-04-06T02:02:59.772Z,7.07
2019-04-06T02:03:58.715Z,7.10
2019-04-06T02:04:58.853Z,7.18
2019-04-06T02:05:58.696Z,7.06
2019-04-06T02:06:58.718Z,7.02
2019-04-06T02:07:58.670Z,7.11
2019-04-06T02:08:58.653Z,7.06
2019-04-06T02:09:58.651Z,7.07
2019-04-06T02:10:58.642Z,7.07
2019-04-06T02:11:58.639Z,7.05
2019-04-06T02:12:58.614Z,7.05
2019-04-06T02:13:58.713Z,7.06
2019-04-06T02:15:00.175Z,7.15
2019-04-06T02:15:58.797Z,7.10
2019-04-06T02:16:58.562Z,7.13
2019-04-06T02:17:58.739Z,7.06
2019-04-06T02:18:59.495Z,7.03
2019-04-06T02:20:01.272Z,7.05
2019-04-06T02:20:59.310Z,7.14
2019-04-06T02:21:58.506Z,7.06
2019-04-06T02:22:58.545Z,7.14
2019-04-06T02:23:58.906Z,7.03
2019-04-06T02:24:58.511Z,7.05
2019-04-06T02:25:58.739Z,7.11
2019-04-06T02:26:59.343Z,7.11
2019-04-06T02:27:58.473Z,7.05
2019-04-06T02:28:58.557Z,7.11
2019-04-06T02:29:58.430Z,7.10
2019-04-06T02:30:58.681Z,7.11
2019-04-06T02:31:58.405Z,7.07
2019-04-06T02:32:59.229Z,7.10
2019-04-06T02:33:58.386Z,7.02
2019-04-06T02:34:58.375Z,7.05
2019-04-06T02:35:58.371Z,7.05
2019-04-06T02:36:58.346Z,7.06
2019-04-06T02:37:58.368Z,7.07
2019-04-06T02:38:58.399Z,7.06
2019-04-06T02:39:58.351Z,7.06
2019-04-06T02:40:58.990Z,7.11
2019-04-06T02:41:58.474Z,7.06
2019-04-06T02:42:58.302Z,7.14
2019-04-06T02:43:58.461Z,7.25
2019-04-06T02:44:58.258Z,7.28
2019-04-06T02:45:58.258Z,7.13
2019-04-06T02:46:58.328Z,7.28
2019-04-06T02:47:58.261Z,7.23
2019-04-06T02:48:58.232Z,7.18
2019-04-06T02:49:58.206Z,7.23
2019-04-06T02:50:58.194Z,7.11
2019-04-06T02:51:58.279Z,7.24
2019-04-06T02:52:58.196Z,7.25
2019-04-06T02:53:58.169Z,7.21
2019-04-06T02:54:58.193Z,7.25
2019-04-06T02:55:58.169Z,7.20
2019-04-06T02:56:58.151Z,7.17
2019-04-06T02:57:58.154Z,7.14
2019-04-06T02:58:58.157Z,7.25
2019-04-06T02:59:58.101Z,7.15
2019-04-06T03:00:58.173Z,7.15
2019-04-06T03:01:58.485Z,7.23
2019-04-06T03:02:58.079Z,7.15
2019-04-06T03:03:58.072Z,7.23
2019-04-06T03:04:58.046Z,7.15
2019-04-06T03:05:58.181Z,7.23
2019-04-06T03:06:58.053Z,7.21
2019-04-06T03:07:58.117Z,7.23
2019-04-06T03:08:59.828Z,7.24
2019-04-06T03:09:57.996Z,7.21
2019-04-06T03:10:57.985Z,7.24
2019-04-06T03:11:57.976Z,7.25
2019-04-06T03:12:57.987Z,7.24
2019-04-06T03:13:57.949Z,7.20
2019-04-06T03:14:58.539Z,7.18
2019-04-06T03:15:58.088Z,7.20
2019-04-06T03:16:58.146Z,7.24
2019-04-06T03:17:57.911Z,7.25
2019-04-06T03:18:57.898Z,7.17
2019-04-06T03:19:58.001Z,7.20
2019-04-06T03:20:57.886Z,7.20
2019-04-06T03:21:57.900Z,7.23
2019-04-06T03:22:57.851Z,7.20
2019-04-06T03:23:57.846Z,7.17
2019-04-06T03:24:57.864Z,7.23
2019-04-06T03:25:57.889Z,7.20
2019-04-06T03:27:02.060Z,7.07
2019-04-06T03:27:57.799Z,7.11
2019-04-06T03:28:57.823Z,7.07
2019-04-06T03:29:59.069Z,7.05
2019-04-06T03:30:57.772Z,6.95
2019-04-06T03:31:58.046Z,6.97
2019-04-06T03:32:57.840Z,6.97
2019-04-06T03:33:57.879Z,6.88
2019-04-06T03:34:57.826Z,6.96
2019-04-06T03:35:57.893Z,6.87
2019-04-06T03:36:57.978Z,6.93
2019-04-06T03:37:57.692Z,6.84
2019-04-06T03:38:57.774Z,6.79
2019-04-06T03:39:57.866Z,6.87
2019-04-06T03:40:57.717Z,6.75
2019-04-06T03:41:57.648Z,6.77
2019-04-06T03:42:57.644Z,6.78
2019-04-06T03:43:57.633Z,6.67
2019-04-06T03:44:57.644Z,6.64
2019-04-06T03:45:57.697Z,6.72
2019-04-06T03:46:57.668Z,6.77
2019-04-06T03:47:57.575Z,6.85
2019-04-06T03:48:57.565Z,6.79
2019-04-06T03:49:57.970Z,6.78
2019-04-06T03:50:57.691Z,6.78
2019-04-06T03:51:57.536Z,6.79
2019-04-06T03:52:57.518Z,6.78
2019-04-06T03:53:57.689Z,6.77
2019-04-06T03:54:57.655Z,6.67
2019-04-06T03:55:57.481Z,6.72
2019-04-06T03:56:57.536Z,6.78
2019-04-06T03:57:57.496Z,6.75
2019-04-06T03:58:57.557Z,6.75
2019-04-06T03:59:57.451Z,6.89
2019-04-06T04:00:57.486Z,6.84
2019-04-06T04:01:57.450Z,6.85
2019-04-06T04:02:57.405Z,6.93
2019-04-06T04:03:57.392Z,6.85
2019-04-06T04:04:57.389Z,6.88
2019-04-06T04:05:57.507Z,6.93
2019-04-06T04:06:57.369Z,6.89
2019-04-06T04:07:57.367Z,6.84
2019-04-06T04:08:57.377Z,6.85
2019-04-06T04:09:57.331Z,6.78
2019-04-06T04:10:57.339Z,6.77
2019-04-06T04:11:57.381Z,6.77
2019-04-06T04:12:57.312Z,6.88
2019-04-06T04:13:57.304Z,6.95
2019-04-06T04:14:57.350Z,6.88
2019-04-06T04:15:57.865Z,6.87
2019-04-06T04:16:57.281Z,6.88
2019-04-06T04:17:57.254Z,6.92
2019-04-06T04:18:57.247Z,6.88
2019-04-06T04:19:57.227Z,6.85
2019-04-06T04:20:57.246Z,6.85
2019-04-06T04:21:57.230Z,6.85
2019-04-06T04:22:57.344Z,6.89
2019-04-06T04:23:57.428Z,6.84
2019-04-06T04:24:57.168Z,6.92
2019-04-06T04:25:57.168Z,6.88
2019-04-06T04:26:57.156Z,6.93
2019-04-06T04:27:57.828Z,6.97
2019-04-06T04:28:57.177Z,6.93
2019-04-06T04:29:57.177Z,6.88
2019-04-06T04:30:57.215Z,6.93
2019-04-06T04:31:57.111Z,6.89
2019-04-06T04:32:57.234Z,7.02
2019-04-06T04:33:57.165Z,6.96
2019-04-06T04:34:57.339Z,6.97
2019-04-06T04:35:57.048Z,6.97
2019-04-06T04:36:57.057Z,7.00
2019-04-06T04:37:57.201Z,7.02
2019-04-06T04:38:57.449Z,6.96
2019-04-06T04:39:57.164Z,6.96
2019-04-06T04:40:57.089Z,6.93
2019-04-06T04:41:57.167Z,6.99
2019-04-06T04:42:57.077Z,7.07
2019-04-06T04:43:57.403Z,6.93
2019-04-06T04:44:57.053Z,6.96
2019-04-06T04:45:57.011Z,7.06
2019-04-06T04:46:57.761Z,7.05
2019-04-06T04:47:57.071Z,7.06
2019-04-06T04:48:57.930Z,7.02
2019-04-06T04:49:57.085Z,7.05
2019-04-06T04:50:56.893Z,7.07
2019-04-06T04:51:56.998Z,7.07
2019-04-06T04:52:56.927Z,7.10
2019-04-06T04:53:57.193Z,7.05
2019-04-06T04:54:56.998Z,7.05
2019-04-06T04:55:56.897Z,7.06
2019-04-06T04:56:56.881Z,7.06
2019-04-06T04:57:56.880Z,7.07
2019-04-06T04:58:57.034Z,7.10
2019-04-06T04:59:56.918Z,7.10
2019-04-06T05:00:58.370Z,7.10
2019-04-06T05:01:57.544Z,7.07
2019-04-06T05:02:57.898Z,7.07
2019-04-06T05:03:57.264Z,7.06
2019-04-06T05:04:56.836Z,7.05
2019-04-06T05:05:56.913Z,7.05
2019-04-06T05:06:56.784Z,7.11
2019-04-06T05:07:56.719Z,7.17
2019-04-06T05:08:56.737Z,7.13
2019-04-06T05:09:56.725Z,7.23
2019-04-06T05:10:56.730Z,7.23
2019-04-06T05:11:56.726Z,7.23
2019-04-06T05:12:56.676Z,7.20
2019-04-06T05:13:56.670Z,7.24
2019-04-06T05:14:57.372Z,7.21
2019-04-06T05:15:56.677Z,7.23
2019-04-06T05:16:56.656Z,7.25
2019-04-06T05:17:56.627Z,7.23
2019-04-06T05:18:56.597Z,7.24
2019-04-06T05:19:56.702Z,7.29
2019-04-06T05:20:56.661Z,7.20
2019-04-06T05:21:56.603Z,7.32
2019-04-06T05:22:56.796Z,7.23
2019-04-06T05:23:56.560Z,7.31
2019-04-06T05:24:56.613Z,7.35
2019-04-06T05:25:56.625Z,7.32
2019-04-06T05:26:56.508Z,7.31
2019-04-06T05:27:56.594Z,7.38
2019-04-06T05:28:56.693Z,7.32
2019-04-06T05:29:56.538Z,7.32
2019-04-06T05:30:56.668Z,7.32
2019-04-06T05:31:56.470Z,7.35
2019-04-06T05:32:56.459Z,7.32
2019-04-06T05:33:56.444Z,7.33
2019-04-06T05:34:58.122Z,7.36
2019-04-06T05:35:56.471Z,7.36
2019-04-06T05:36:56.451Z,7.38
2019-04-06T05:37:57.200Z,7.40
2019-04-06T05:38:56.465Z,7.42
2019-04-06T05:39:56.750Z,7.40
2019-04-06T05:40:56.510Z,7.38
2019-04-06T05:41:56.414Z,7.40
2019-04-06T05:42:56.356Z,7.50
2019-04-06T05:43:56.364Z,7.48
2019-04-06T05:44:56.317Z,7.47
2019-04-06T05:45:56.379Z,7.47
2019-04-06T05:46:56.355Z,7.50
2019-04-06T05:47:56.388Z,7.51
2019-04-06T05:48:56.388Z,7.56
2019-04-06T05:49:56.813Z,7.53
2019-04-06T05:50:56.269Z,7.48
2019-04-06T05:51:56.244Z,7.51
2019-04-06T05:52:56.239Z,7.56
2019-04-06T05:53:56.459Z,7.54
2019-04-06T05:54:56.220Z,7.54
2019-04-06T05:55:56.255Z,7.61
2019-04-06T05:56:56.238Z,7.67
2019-04-06T05:58:03.444Z,7.60
2019-04-06T05:58:57.194Z,7.69
2019-04-06T05:59:56.155Z,7.72
2019-04-06T06:00:56.247Z,7.75
2019-04-06T06:01:56.323Z,7.70
2019-04-06T06:02:56.185Z,7.67
2019-04-06T06:03:56.708Z,7.67
2019-04-06T06:04:56.137Z,7.69
2019-04-06T06:05:56.124Z,7.73
2019-04-06T06:06:56.077Z,7.76
2019-04-06T06:07:56.093Z,7.82
2019-04-06T06:08:56.126Z,7.87
2019-04-06T06:09:56.122Z,7.87
2019-04-06T06:10:56.106Z,7.83
2019-04-06T06:11:56.300Z,7.80
2019-04-06T06:12:56.013Z,7.83
2019-04-06T06:13:56.050Z,7.93
2019-04-06T06:14:56.005Z,7.95
2019-04-06T06:15:56.033Z,8.05
2019-04-06T06:16:55.976Z,8.00
2019-04-06T06:17:55.970Z,7.95
2019-04-06T06:18:55.985Z,8.05
2019-04-06T06:19:56.018Z,8.01
2019-04-06T06:20:55.940Z,8.08
2019-04-06T06:21:55.911Z,8.12
2019-04-06T06:22:55.919Z,8.10
2019-04-06T06:23:55.918Z,8.16
2019-04-06T06:24:55.900Z,8.20
2019-04-06T06:25:55.919Z,8.23
2019-04-06T06:26:55.906Z,8.19
2019-04-06T06:27:55.936Z,8.26
2019-04-06T06:28:56.001Z,8.28
2019-04-06T06:29:55.826Z,8.31
2019-04-06T06:30:55.859Z,8.30
2019-04-06T06:31:55.946Z,8.34
2019-04-06T06:32:55.794Z,8.33
2019-04-06T06:33:55.827Z,8.37
2019-04-06T06:34:56.048Z,8.36
2019-04-06T06:35:55.783Z,8.38
2019-04-06T06:36:55.785Z,8.33
2019-04-06T06:37:55.741Z,8.31
2019-04-06T06:38:55.756Z,8.42
2019-04-06T06:39:55.750Z,8.44
2019-04-06T06:40:55.712Z,8.42
2019-04-06T06:41:55.904Z,8.45
2019-04-06T06:42:55.729Z,8.41
2019-04-06T06:43:55.691Z,8.42
2019-04-06T06:44:56.904Z,8.46
2019-04-06T06:45:56.206Z,8.41
2019-04-06T06:46:55.661Z,8.49
2019-04-06T06:47:55.686Z,8.52
2019-04-06T06:48:55.739Z,8.51
2019-04-06T06:49:56.121Z,8.48
2019-04-06T06:50:56.074Z,8.51
2019-04-06T06:51:55.642Z,8.55
2019-04-06T06:52:55.680Z,8.60
2019-04-06T06:53:55.619Z,8.64
2019-04-06T06:54:55.726Z,8.70
2019-04-06T06:55:55.603Z,8.66
2019-04-06T06:56:55.576Z,8.67
2019-04-06T06:57:55.559Z,8.79
2019-04-06T06:58:55.724Z,8.79
2019-04-06T06:59:55.753Z,8.74
2019-04-06T07:00:55.491Z,8.73
2019-04-06T07:01:55.488Z,8.79
2019-04-06T07:02:55.923Z,8.73
2019-04-06T07:03:56.565Z,8.81
2019-04-06T07:04:55.466Z,8.81
2019-04-06T07:05:55.791Z,8.84
2019-04-06T07:06:55.428Z,8.87
2019-04-06T07:07:55.415Z,8.89
2019-04-06T07:08:55.404Z,9.03
2019-04-06T07:10:04.441Z,9.08
2019-04-06T07:11:00.888Z,8.94
2019-04-06T07:11:55.403Z,9.02
2019-04-06T07:12:55.443Z,9.06
2019-04-06T07:13:55.728Z,9.00
2019-04-06T07:14:55.545Z,9.00
2019-04-06T07:15:55.488Z,9.00
2019-04-06T07:16:55.374Z,9.02
2019-04-06T07:17:55.513Z,9.13
2019-04-06T07:18:55.307Z,9.00
2019-04-06T07:19:55.325Z,9.18
2019-04-06T07:20:55.749Z,9.11
2019-04-06T07:21:55.493Z,9.16
2019-04-06T07:22:55.252Z,9.13
2019-04-06T07:23:55.263Z,9.19
2019-04-06T07:24:55.257Z,9.16
2019-04-06T07:25:58.607Z,9.25
2019-04-06T07:26:55.502Z,9.28
2019-04-06T07:27:55.194Z,9.37
2019-04-06T07:28:55.197Z,9.29
2019-04-06T07:29:55.211Z,9.43
2019-04-06T07:30:55.191Z,9.34
2019-04-06T07:31:55.215Z,9.46
2019-04-06T07:32:55.452Z,9.46
2019-04-06T07:33:55.189Z,9.51
2019-04-06T07:34:55.145Z,9.58
2019-04-06T07:35:56.285Z,9.48
2019-04-06T07:36:55.805Z,9.44
2019-04-06T07:37:55.819Z,9.54
2019-04-06T07:38:56.041Z,9.59
2019-04-06T07:39:55.688Z,9.58
2019-04-06T07:40:56.287Z,9.59
2019-04-06T07:41:55.164Z,9.72
2019-04-06T07:42:55.093Z,9.64
2019-04-06T07:43:55.122Z,9.62
2019-04-06T07:44:55.311Z,9.73
2019-04-06T07:45:55.095Z,9.82
2019-04-06T07:46:55.871Z,9.80
2019-04-06T07:47:55.050Z,9.82
2019-04-06T07:48:54.990Z,9.92
2019-04-06T07:49:54.971Z,9.94
2019-04-06T07:50:54.988Z,10.04
2019-04-06T07:51:54.958Z,10.01
2019-04-06T07:52:54.931Z,10.10
2019-04-06T07:53:54.990Z,10.15
2019-04-06T07:54:54.903Z,10.26
2019-04-06T07:55:54.914Z,10.31
2019-04-06T07:56:54.894Z,10.38
2019-04-06T07:57:55.134Z,10.40
2019-04-06T07:58:55.064Z,10.53
2019-04-06T07:59:54.850Z,10.61
2019-04-06T08:00:54.954Z,10.59
2019-04-06T08:01:54.831Z,10.69
2019-04-06T08:02:55.050Z,10.74
2019-04-06T08:03:54.811Z,10.72
2019-04-06T08:04:54.802Z,10.93
2019-04-06T08:05:54.783Z,10.99
2019-04-06T08:06:54.869Z,11.10
2019-04-06T08:07:54.784Z,11.11
2019-04-06T08:08:54.750Z,11.19
2019-04-06T08:09:54.747Z,11.51
2019-04-06T08:10:54.747Z,11.55
2019-04-06T08:11:54.759Z,11.70
2019-04-06T08:12:54.770Z,11.91
2019-04-06T08:13:54.705Z,11.97
2019-04-06T08:14:57.294Z,12.10
2019-04-06T08:15:54.837Z,12.06
2019-04-06T08:16:54.800Z,12.20
2019-04-06T08:17:54.713Z,12.15
2019-04-06T08:18:54.673Z,12.18
2019-04-06T08:19:54.705Z,12.15
2019-04-06T08:20:54.621Z,12.25
2019-04-06T08:21:54.673Z,12.24
2019-04-06T08:22:54.604Z,12.27
2019-04-06T08:23:54.612Z,12.27
2019-04-06T08:24:54.719Z,12.29
2019-04-06T08:25:55.457Z,12.31
2019-04-06T08:26:56.385Z,12.25
2019-04-06T08:27:54.926Z,12.36
2019-04-06T08:29:00.330Z,12.42
2019-04-06T08:29:55.619Z,12.45
2019-04-06T08:30:54.582Z,12.46
2019-04-06T08:31:56.228Z,12.54
2019-04-06T08:32:55.389Z,12.68
2019-04-06T08:33:54.520Z,12.72
2019-04-06T08:34:54.541Z,12.73
2019-04-06T08:35:54.870Z,12.80
2019-04-06T08:36:55.427Z,12.83
2019-04-06T08:37:54.469Z,12.86
2019-04-06T08:38:54.430Z,12.78
2019-04-06T08:39:54.603Z,12.90
2019-04-06T08:40:54.575Z,12.91
2019-04-06T08:41:54.473Z,12.87
2019-04-06T08:42:54.431Z,12.87
2019-04-06T08:43:54.573Z,12.98
2019-04-06T08:44:54.424Z,13.04
2019-04-06T08:45:54.356Z,13.12
2019-04-06T08:46:54.349Z,13.15
2019-04-06T08:47:54.359Z,13.27
2019-04-06T08:48:54.334Z,13.15
2019-04-06T08:49:54.309Z,13.25
2019-04-06T08:50:54.314Z,13.20
2019-04-06T08:51:54.309Z,13.46
2019-04-06T08:52:54.295Z,13.62
2019-04-06T08:53:54.329Z,13.65
2019-04-06T08:54:54.291Z,13.71
2019-04-06T08:55:54.565Z,13.72
2019-04-06T08:56:54.267Z,13.72
2019-04-06T08:57:54.440Z,13.72
2019-04-06T08:58:54.244Z,13.92
2019-04-06T08:59:54.226Z,13.95
2019-04-06T09:00:54.347Z,13.83
2019-04-06T09:01:54.491Z,13.97
2019-04-06T09:02:54.181Z,13.67
2019-04-06T09:03:54.192Z,13.78
2019-04-06T09:04:55.438Z,13.78
2019-04-06T09:05:54.142Z,13.95
2019-04-06T09:06:54.129Z,13.97
2019-04-06T09:07:54.122Z,13.95
2019-04-06T09:08:54.358Z,13.96
2019-04-06T09:09:54.101Z,13.96
2019-04-06T09:10:54.103Z,14.08
2019-04-06T09:11:54.114Z,14.23
2019-04-06T09:12:54.080Z,14.18
2019-04-06T09:13:54.104Z,14.23
2019-04-06T09:14:54.044Z,14.26
2019-04-06T09:15:54.131Z,14.17
2019-04-06T09:16:54.025Z,14.14
2019-04-06T09:17:54.228Z,14.25
2019-04-06T09:18:54.021Z,14.37
2019-04-06T09:20:08.769Z,14.53
2019-04-06T09:20:54.765Z,14.60
2019-04-06T09:21:54.018Z,14.59
2019-04-06T09:22:54.199Z,14.70
2019-04-06T09:23:54.215Z,14.66
2019-04-06T09:24:54.391Z,14.72
2019-04-06T09:25:53.990Z,14.73
2019-04-06T09:26:53.919Z,14.89
2019-04-06T09:27:53.904Z,14.86
2019-04-06T09:28:53.974Z,14.88
2019-04-06T09:29:53.919Z,14.81
2019-04-06T09:30:54.195Z,14.62
2019-04-06T09:31:53.960Z,14.53
2019-04-06T09:32:53.863Z,14.41
2019-04-06T09:33:54.945Z,14.43
2019-04-06T09:34:54.199Z,14.35
2019-04-06T09:35:54.280Z,14.44
2019-04-06T09:36:53.802Z,14.45
2019-04-06T09:37:53.803Z,14.58
2019-04-06T09:38:53.790Z,14.63
2019-04-06T09:39:54.750Z,14.78
2019-04-06T09:40:53.906Z,14.86
2019-04-06T09:41:53.807Z,14.84
2019-04-06T09:42:53.773Z,14.89
2019-04-06T09:43:53.727Z,14.96
2019-04-06T09:44:53.736Z,15.06
2019-04-06T09:45:53.735Z,15.06
2019-04-06T09:46:53.702Z,15.15
2019-04-06T09:47:53.684Z,15.09
2019-04-06T09:48:53.882Z,15.14
2019-04-06T09:49:53.674Z,15.11
2019-04-06T09:50:53.687Z,15.10
2019-04-06T09:51:53.722Z,15.18
2019-04-06T09:52:53.634Z,15.21
2019-04-06T09:54:05.229Z,15.10
2019-04-06T09:54:54.609Z,15.24
2019-04-06T09:55:53.645Z,15.19
2019-04-06T09:56:53.738Z,15.29
2019-04-06T09:57:53.617Z,15.27
2019-04-06T09:58:53.568Z,15.18
2019-04-06T09:59:53.565Z,15.39
2019-04-06T10:00:53.806Z,15.35
2019-04-06T10:01:53.544Z,15.33
2019-04-06T10:02:53.522Z,15.36
2019-04-06T10:03:53.513Z,15.43
2019-04-06T10:04:53.507Z,15.49
2019-04-06T10:05:53.488Z,15.47
2019-04-06T10:06:53.502Z,15.39
2019-04-06T10:07:53.473Z,15.21
2019-04-06T10:08:53.457Z,15.24
2019-04-06T10:09:53.691Z,15.35
2019-04-06T10:10:53.454Z,15.47
2019-04-06T10:11:53.598Z,15.62
2019-04-06T10:12:53.421Z,15.82
2019-04-06T10:13:53.409Z,15.80
2019-04-06T10:14:54.448Z,15.84
2019-04-06T10:15:54.434Z,15.95
2019-04-06T10:16:53.656Z,16.12
2019-04-06T10:17:53.683Z,16.20
2019-04-06T10:18:53.419Z,16.24
2019-04-06T10:19:55.204Z,16.16
2019-04-06T10:20:53.332Z,16.15
2019-04-06T10:21:53.322Z,16.05
2019-04-06T10:22:53.335Z,15.97
2019-04-06T10:23:53.300Z,15.98
2019-04-06T10:24:53.304Z,15.91
2019-04-06T10:25:53.282Z,15.82
2019-04-06T10:26:53.266Z,15.82
2019-04-06T10:27:53.255Z,15.86
2019-04-06T10:28:53.264Z,15.86
2019-04-06T10:29:53.262Z,15.95
2019-04-06T10:30:53.789Z,15.82
2019-04-06T10:31:53.284Z,15.70
2019-04-06T10:32:53.210Z,15.58
2019-04-06T10:33:53.219Z,15.47
2019-04-06T10:34:53.351Z,15.47
2019-04-06T10:35:53.183Z,15.57
2019-04-06T10:36:53.160Z,15.59
2019-04-06T10:37:53.421Z,15.55
2019-04-06T10:38:53.334Z,15.73
2019-04-06T10:39:54.544Z,15.73
2019-04-06T10:40:53.242Z,15.72
2019-04-06T10:41:53.231Z,15.75
2019-04-06T10:42:53.212Z,15.83
2019-04-06T10:43:53.169Z,16.01
2019-04-06T10:44:53.306Z,16.15
2019-04-06T10:45:53.084Z,16.32
2019-04-06T10:46:53.055Z,16.43
2019-04-06T10:47:53.553Z,16.66
2019-04-06T10:48:53.174Z,16.83
2019-04-06T10:49:53.150Z,16.87
2019-04-06T10:50:53.034Z,16.94
2019-04-06T10:51:53.019Z,16.74
2019-04-06T10:52:53.088Z,16.66
2019-04-06T10:53:53.013Z,16.66
2019-04-06T10:54:52.974Z,16.65
2019-04-06T10:55:52.996Z,16.84
2019-04-06T10:56:52.976Z,17.01
2019-04-06T10:57:52.985Z,17.12
2019-04-06T10:58:52.967Z,17.22
2019-04-06T11:00:00.990Z,17.15
2019-04-06T11:00:54.222Z,17.16
2019-04-06T11:01:52.908Z,17.22
2019-04-06T11:02:52.904Z,17.27
2019-04-06T11:03:52.872Z,17.27
2019-04-06T11:04:52.923Z,17.26
2019-04-06T11:05:52.893Z,17.34
2019-04-06T11:06:52.858Z,17.33
2019-04-06T11:07:53.069Z,17.34
2019-04-06T11:08:52.918Z,17.05
2019-04-06T11:09:52.923Z,16.86
2019-04-06T11:10:53.010Z,16.58
2019-04-06T11:11:52.782Z,16.46
2019-04-06T11:12:52.787Z,16.49
2019-04-06T11:13:52.762Z,16.39
2019-04-06T11:14:52.755Z,16.42
2019-04-06T11:15:52.741Z,16.60
2019-04-06T11:16:52.730Z,16.91
2019-04-06T11:17:52.928Z,16.89
2019-04-06T11:18:52.711Z,17.01
2019-04-06T11:19:52.822Z,17.04
2019-04-06T11:20:52.684Z,17.09
2019-04-06T11:21:52.677Z,17.31
2019-04-06T11:22:52.989Z,17.39
2019-04-06T11:23:52.660Z,17.39
2019-04-06T11:24:52.725Z,17.60
2019-04-06T11:25:52.635Z,17.57
2019-04-06T11:26:52.772Z,17.60
2019-04-06T11:27:52.807Z,17.41
2019-04-06T11:28:52.927Z,17.34
2019-04-06T11:29:52.661Z,17.41
2019-04-06T11:30:52.847Z,17.42
2019-04-06T11:31:53.360Z,17.46
2019-04-06T11:32:52.602Z,17.44
2019-04-06T11:33:52.756Z,17.38
2019-04-06T11:34:52.535Z,17.36
2019-04-06T11:35:52.535Z,17.49
2019-04-06T11:36:52.524Z,17.57
2019-04-06T11:37:52.498Z,17.51
2019-04-06T11:38:52.690Z,17.34
2019-04-06T11:39:52.540Z,17.30
2019-04-06T11:40:52.676Z,17.23
2019-04-06T11:41:55.122Z,17.36
2019-04-06T11:42:52.590Z,17.36
2019-04-06T11:43:52.645Z,17.31
2019-04-06T11:44:54.213Z,17.39
2019-04-06T11:45:52.578Z,17.27
2019-04-06T11:46:53.229Z,17.24
2019-04-06T11:47:53.301Z,17.15
2019-04-06T11:48:52.568Z,17.23
2019-04-06T11:49:52.774Z,17.04
2019-04-06T11:50:53.250Z,17.08
2019-04-06T11:51:52.625Z,16.90
2019-04-06T11:52:52.338Z,16.86
2019-04-06T11:53:52.332Z,16.76
2019-04-06T11:54:52.321Z,16.51
2019-04-06T11:55:52.336Z,16.53
2019-04-06T11:56:52.293Z,16.47
2019-04-06T11:57:52.306Z,16.43
2019-04-06T11:58:52.560Z,16.43
2019-04-06T11:59:52.267Z,16.46
2019-04-06T12:00:52.423Z,16.50
2019-04-06T12:01:52.469Z,16.41
2019-04-06T12:02:52.561Z,16.32
2019-04-06T12:03:52.296Z,16.41
2019-04-06T12:04:52.208Z,16.39
2019-04-06T12:05:52.234Z,16.49
2019-04-06T12:06:52.213Z,16.46
2019-04-06T12:07:52.182Z,16.47
2019-04-06T12:08:52.177Z,16.58
2019-04-06T12:09:52.362Z,16.54
2019-04-06T12:10:52.146Z,16.56
2019-04-06T12:11:52.158Z,16.56
2019-04-06T12:12:52.130Z,16.54
2019-04-06T12:13:52.118Z,16.61
2019-04-06T12:14:52.130Z,16.69
2019-04-06T12:15:52.092Z,16.60
2019-04-06T12:16:52.083Z,16.65
2019-04-06T12:17:52.122Z,16.69
2019-04-06T12:18:52.062Z,16.53
2019-04-06T12:19:52.055Z,16.61
2019-04-06T12:20:52.064Z,16.71
2019-04-06T12:21:52.033Z,16.68
2019-04-06T12:22:52.321Z,17.04
2019-04-06T12:23:52.026Z,17.72
2019-04-06T12:24:52.005Z,18.28
2019-04-06T12:25:52.017Z,18.55
2019-04-06T12:26:51.980Z,18.70
2019-04-06T12:27:52.161Z,19.11
2019-04-06T12:28:51.972Z,19.21
2019-04-06T12:29:52.015Z,19.45
2019-04-06T12:30:52.090Z,19.58
2019-04-06T12:31:52.840Z,19.34
2019-04-06T12:32:52.656Z,19.15
2019-04-06T12:33:52.673Z,19.09
2019-04-06T12:34:52.011Z,19.15
2019-04-06T12:35:52.083Z,19.27
2019-04-06T12:36:51.874Z,19.21
2019-04-06T12:37:51.882Z,19.55
2019-04-06T12:38:51.852Z,19.55
2019-04-06T12:39:54.186Z,19.22
2019-04-06T12:40:51.830Z,19.00
2019-04-06T12:41:51.812Z,19.04
2019-04-06T12:42:51.811Z,19.16
2019-04-06T12:43:51.914Z,19.16
2019-04-06T12:44:52.192Z,19.22
2019-04-06T12:45:51.768Z,19.09
2019-04-06T12:46:52.054Z,18.93
2019-04-06T12:47:51.752Z,18.83
2019-04-06T12:48:52.672Z,18.84
2019-04-06T12:49:51.745Z,18.96
2019-04-06T12:50:51.753Z,18.96
2019-04-06T12:51:51.812Z,19.02
2019-04-06T12:52:51.699Z,19.08
2019-04-06T12:53:51.686Z,18.80
2019-04-06T12:54:51.676Z,18.74
2019-04-06T12:55:51.751Z,18.60
2019-04-06T12:56:51.655Z,18.58
2019-04-06T12:57:51.730Z,18.60
2019-04-06T12:58:51.642Z,18.98
2019-04-06T12:59:51.626Z,18.99
2019-04-06T13:00:53.307Z,19.07
2019-04-06T13:01:51.627Z,19.41
2019-04-06T13:02:52.117Z,19.82
2019-04-06T13:03:51.835Z,19.84
2019-04-06T13:04:52.838Z,19.64
2019-04-06T13:05:51.769Z,19.54
2019-04-06T13:06:51.579Z,19.63